createdAt,value
2019-02-24T00:00:13.868Z,60.10
2019-02-24T00:01:17.994Z,60.09
2019-02-24T00:02:22.122Z,60.13
2019-02-24T00:03:26.354Z,60.10
2019-02-24T00:04:30.522Z,60.09
2019-02-24T00:05:34.698Z,60.14
2019-02-24T00:06:38.871Z,60.23
2019-02-24T00:07:42.920Z,60.24
2019-02-24T00:08:47.028Z,60.16
2019-02-24T00:09:51.275Z,60.18
2019-02-24T00:10:55.381Z,60.15
2019-02-24T00:11:59.594Z,60.03
2019-02-24T00:13:03.698Z,60.04
2019-02-24T00:14:07.818Z,60.04
2019-02-24T00:15:12.073Z,60.09
2019-02-24T00:16:16.221Z,60.13
2019-02-24T00:17:20.344Z,60.17
2019-02-24T00:18:24.425Z,60.23
2019-02-24T00:19:28.581Z,60.24
2019-02-24T00:20:32.707Z,60.29
2019-02-24T00:21:36.835Z,60.33
2019-02-24T00:22:40.925Z,60.38
2019-02-24T00:23:45.070Z,60.42
2019-02-24T00:24:49.338Z,60.42
2019-02-24T00:25:53.542Z,60.69
2019-02-24T00:27:00.701Z,60.63
2019-02-24T00:28:07.200Z,60.58
2019-02-24T00:29:08.045Z,60.60
2019-02-24T00:30:12.155Z,60.92
2019-02-24T00:31:16.347Z,61.23
2019-02-24T00:32:20.433Z,61.42
2019-02-24T00:33:24.651Z,61.41
2019-02-24T00:34:28.689Z,61.44
2019-02-24T00:35:32.827Z,61.50
2019-02-24T00:36:36.976Z,61.58
2019-02-24T00:37:41.107Z,61.56
2019-02-24T00:38:45.342Z,61.64
2019-02-24T00:39:49.498Z,61.62
2019-02-24T00:40:53.527Z,61.68
2019-02-24T00:41:57.656Z,61.64
2019-02-24T00:43:01.913Z,61.45
2019-02-24T00:44:05.975Z,61.34
2019-02-24T00:45:10.190Z,61.27
2019-02-24T00:46:14.354Z,61.32
2019-02-24T00:47:18.433Z,61.31
2019-02-24T00:48:22.562Z,61.23
2019-02-24T00:49:26.792Z,61.25
2019-02-24T00:50:31.006Z,61.23
2019-02-24T00:51:35.105Z,61.32
2019-02-24T00:52:39.218Z,61.39
2019-02-24T00:53:43.392Z,61.52
2019-02-24T00:54:47.521Z,61.60
2019-02-24T00:55:51.747Z,61.52
2019-02-24T00:56:55.958Z,61.46
2019-02-24T00:58:00.024Z,61.43
2019-02-24T00:59:04.244Z,61.55
2019-02-24T01:00:08.431Z,61.58
2019-02-24T01:01:12.593Z,61.45
2019-02-24T01:02:16.701Z,61.47
2019-02-24T01:03:20.799Z,61.41
2019-02-24T01:04:24.930Z,61.52
2019-02-24T01:05:29.154Z,61.81
2019-02-24T01:06:33.338Z,61.82
2019-02-24T01:07:37.551Z,61.98
2019-02-24T01:08:41.692Z,61.79
2019-02-24T01:09:45.886Z,62.16
2019-02-24T01:10:49.952Z,61.96
2019-02-24T01:11:54.239Z,62.22
2019-02-24T01:12:58.412Z,62.32
2019-02-24T01:14:02.573Z,62.00
2019-02-24T01:15:06.659Z,61.93
2019-02-24T01:16:10.809Z,61.83
2019-02-24T01:17:15.043Z,61.97
2019-02-24T01:18:19.102Z,62.17
2019-02-24T01:19:23.340Z,61.99
2019-02-24T01:20:27.424Z,62.30
2019-02-24T01:21:31.671Z,62.35
2019-02-24T01:22:35.873Z,62.43
2019-02-24T01:23:40.047Z,62.66
2019-02-24T01:24:44.049Z,62.52
2019-02-24T01:25:48.212Z,62.56
2019-02-24T01:26:52.458Z,62.72
2019-02-24T01:27:56.562Z,62.66
2019-02-24T01:29:00.726Z,62.42
2019-02-24T01:30:04.887Z,62.29
2019-02-24T01:31:09.026Z,62.22
2019-02-24T01:32:13.158Z,62.10
2019-02-24T01:33:17.359Z,62.16
2019-02-24T01:34:21.494Z,62.26
2019-02-24T01:35:25.521Z,62.12
2019-02-24T01:36:29.673Z,62.32
2019-02-24T01:37:33.843Z,62.38
2019-02-24T01:38:38.018Z,62.55
2019-02-24T01:39:42.202Z,62.29
2019-02-24T01:40:46.375Z,62.35
2019-02-24T01:41:50.469Z,62.40
2019-02-24T01:42:54.709Z,62.53
2019-02-24T01:43:58.863Z,62.55
2019-02-24T01:45:03.009Z,62.61
2019-02-24T01:46:07.096Z,62.66
2019-02-24T01:47:11.343Z,62.54
2019-02-24T01:48:15.566Z,62.53
2019-02-24T01:49:19.652Z,62.58
2019-02-24T01:50:23.884Z,62.61
2019-02-24T01:51:27.952Z,62.73
2019-02-24T01:52:32.165Z,62.75
2019-02-24T01:53:36.237Z,63.60
2019-02-24T01:54:40.445Z,64.32
2019-02-24T01:55:44.526Z,63.92
2019-02-24T01:56:48.730Z,64.17
2019-02-24T01:57:52.817Z,63.91
2019-02-24T01:58:57.010Z,63.67
2019-02-24T02:00:01.196Z,63.65
2019-02-24T02:01:05.345Z,63.55
2019-02-24T02:02:09.504Z,63.29
2019-02-24T02:03:13.587Z,63.38
2019-02-24T02:04:17.786Z,63.55
2019-02-24T02:05:21.962Z,63.48
2019-02-24T02:06:26.180Z,63.81
2019-02-24T02:07:30.326Z,64.13
2019-02-24T02:08:34.539Z,64.38
2019-02-24T02:09:38.600Z,64.37
2019-02-24T02:10:42.661Z,64.50
2019-02-24T02:11:46.880Z,64.46
2019-02-24T02:12:51.036Z,64.28
2019-02-24T02:13:55.140Z,64.48
2019-02-24T02:14:59.245Z,64.51
2019-02-24T02:16:03.343Z,64.34
2019-02-24T02:17:07.572Z,64.33
2019-02-24T02:18:11.782Z,64.20
2019-02-24T02:19:15.871Z,64.28
2019-02-24T02:20:20.035Z,64.53
2019-02-24T02:21:24.182Z,64.53
2019-02-24T02:22:28.234Z,64.78
2019-02-24T02:23:32.465Z,64.84
2019-02-24T02:24:36.623Z,64.81
2019-02-24T02:25:40.785Z,64.94
2019-02-24T02:26:44.853Z,64.94
2019-02-24T02:27:49.062Z,65.03
2019-02-24T02:28:53.246Z,64.99
2019-02-24T02:29:57.297Z,64.83
2019-02-24T02:31:01.416Z,64.95
2019-02-24T02:32:05.684Z,64.81
2019-02-24T02:33:09.958Z,64.54
2019-02-24T02:34:14.067Z,64.49
2019-02-24T02:35:18.212Z,64.69
2019-02-24T02:36:22.373Z,64.63
2019-02-24T02:37:26.551Z,64.62
2019-02-24T02:38:30.645Z,64.60
2019-02-24T02:39:34.881Z,64.36
2019-02-24T02:40:38.922Z,64.16
2019-02-24T02:41:43.173Z,64.36
2019-02-24T02:42:47.243Z,64.17
2019-02-24T02:43:51.367Z,63.92
2019-02-24T02:44:55.576Z,63.88
2019-02-24T02:45:59.640Z,63.94
2019-02-24T02:47:03.866Z,63.80
2019-02-24T02:48:08.065Z,63.75
2019-02-24T02:49:12.167Z,63.73
2019-02-24T02:50:16.380Z,63.62
2019-02-24T02:51:20.542Z,63.63
2019-02-24T02:52:24.723Z,63.56
2019-02-24T02:53:28.825Z,63.71
2019-02-24T02:54:33.060Z,63.91
2019-02-24T02:55:37.094Z,63.83
2019-02-24T02:56:41.193Z,64.06
2019-02-24T02:57:45.431Z,64.36
2019-02-24T02:58:54.187Z,63.94
2019-02-24T02:59:53.773Z,64.10
2019-02-24T03:00:57.817Z,63.92
2019-02-24T03:02:02.036Z,64.41
2019-02-24T03:03:06.115Z,64.38
2019-02-24T03:04:10.317Z,64.56
2019-02-24T03:05:14.393Z,64.81
2019-02-24T03:06:18.598Z,64.75
2019-02-24T03:07:22.697Z,64.51
2019-02-24T03:08:26.880Z,64.72
2019-02-24T03:09:31.049Z,64.58
2019-02-24T03:10:35.218Z,64.94
2019-02-24T03:11:39.295Z,64.81
2019-02-24T03:12:43.387Z,65.40
2019-02-24T03:13:47.535Z,65.44
2019-02-24T03:14:51.694Z,64.85
2019-02-24T03:15:55.884Z,65.00
2019-02-24T03:17:00.091Z,64.98
2019-02-24T03:18:04.151Z,64.72
2019-02-24T03:19:08.190Z,64.83
2019-02-24T03:20:12.400Z,64.67
2019-02-24T03:21:16.607Z,64.75
2019-02-24T03:22:20.751Z,64.55
2019-02-24T03:23:24.833Z,64.71
2019-02-24T03:24:28.955Z,64.62
2019-02-24T03:25:33.090Z,64.94
2019-02-24T03:26:37.303Z,64.78
2019-02-24T03:27:44.393Z,64.85
2019-02-24T03:28:47.585Z,64.49
2019-02-24T03:29:51.747Z,64.36
2019-02-24T03:30:55.903Z,64.51
2019-02-24T03:31:59.937Z,64.41
2019-02-24T03:33:04.123Z,64.43
2019-02-24T03:34:08.294Z,64.55
2019-02-24T03:35:12.498Z,65.08
2019-02-24T03:36:16.686Z,64.68
2019-02-24T03:37:20.744Z,64.81
2019-02-24T03:38:24.898Z,64.99
2019-02-24T03:39:29.098Z,64.61
2019-02-24T03:40:33.269Z,64.63
2019-02-24T03:41:37.415Z,64.79
2019-02-24T03:42:41.559Z,64.67
2019-02-24T03:43:45.712Z,64.59
2019-02-24T03:44:49.857Z,65.03
2019-02-24T03:45:53.967Z,64.69
2019-02-24T03:46:58.201Z,64.65
2019-02-24T03:48:02.328Z,64.60
2019-02-24T03:49:06.474Z,65.06
2019-02-24T03:50:10.646Z,65.08
2019-02-24T03:51:14.857Z,65.96
2019-02-24T03:52:19.059Z,65.32
2019-02-24T03:53:23.238Z,65.22
2019-02-24T03:54:27.400Z,64.98
2019-02-24T03:55:31.523Z,64.92
2019-02-24T03:56:35.697Z,65.00
2019-02-24T03:57:39.896Z,65.09
2019-02-24T03:58:44.056Z,66.06
2019-02-24T03:59:48.249Z,66.48
2019-02-24T04:00:52.343Z,66.62
2019-02-24T04:01:56.546Z,66.00
2019-02-24T04:03:00.703Z,65.79
2019-02-24T04:04:04.797Z,66.60
2019-02-24T04:05:09.017Z,67.07
2019-02-24T04:06:13.108Z,67.55
2019-02-24T04:07:17.239Z,67.27
2019-02-24T04:08:21.466Z,66.67
2019-02-24T04:09:25.526Z,67.07
2019-02-24T04:10:29.644Z,67.86
2019-02-24T04:11:33.774Z,68.16
2019-02-24T04:12:37.881Z,67.86
2019-02-24T04:13:42.133Z,67.66
2019-02-24T04:14:46.277Z,67.08
2019-02-24T04:15:50.434Z,67.17
2019-02-24T04:16:54.645Z,66.73
2019-02-24T04:17:58.809Z,66.92
2019-02-24T04:19:02.973Z,66.69
2019-02-24T04:20:07.133Z,67.43
2019-02-24T04:21:11.585Z,67.52
2019-02-24T04:22:15.628Z,67.73
2019-02-24T04:23:19.800Z,67.64
2019-02-24T04:24:23.972Z,67.11
2019-02-24T04:25:28.153Z,67.32
2019-02-24T04:26:32.357Z,67.25
2019-02-24T04:27:36.440Z,67.34
2019-02-24T04:28:40.676Z,66.95
2019-02-24T04:29:44.732Z,67.19
2019-02-24T04:30:48.864Z,66.74
2019-02-24T04:31:53.083Z,66.64
2019-02-24T04:32:57.126Z,66.85
2019-02-24T04:34:01.358Z,66.92
2019-02-24T04:35:05.515Z,66.89
2019-02-24T04:36:09.709Z,66.63
2019-02-24T04:37:13.805Z,66.53
2019-02-24T04:38:18.052Z,66.49
2019-02-24T04:39:22.081Z,66.65
2019-02-24T04:40:26.298Z,66.76
2019-02-24T04:41:30.507Z,66.31
2019-02-24T04:42:34.633Z,66.46
2019-02-24T04:43:38.754Z,66.47
2019-02-24T04:44:42.965Z,66.71
2019-02-24T04:45:47.005Z,66.95
2019-02-24T04:46:51.156Z,67.22
2019-02-24T04:47:55.344Z,66.88
2019-02-24T04:48:59.408Z,67.15
2019-02-24T04:50:03.628Z,66.74
2019-02-24T04:51:07.787Z,66.72
2019-02-24T04:52:11.974Z,66.69
2019-02-24T04:53:16.173Z,66.66
2019-02-24T04:54:20.221Z,66.76
2019-02-24T04:55:24.351Z,66.64
2019-02-24T04:56:28.567Z,66.65
2019-02-24T04:57:32.755Z,66.64
2019-02-24T04:58:36.899Z,67.06
2019-02-24T04:59:40.965Z,66.76
2019-02-24T05:00:45.207Z,66.58
2019-02-24T05:01:49.390Z,67.24
2019-02-24T05:02:53.465Z,66.96
2019-02-24T05:03:57.686Z,67.64
2019-02-24T05:05:01.819Z,67.43
2019-02-24T05:06:06.007Z,67.39
2019-02-24T05:07:10.203Z,67.57
2019-02-24T05:08:14.396Z,67.38
2019-02-24T05:09:18.512Z,67.20
2019-02-24T05:10:22.583Z,67.28
2019-02-24T05:11:26.828Z,67.13
2019-02-24T05:12:31.031Z,67.46
2019-02-24T05:13:35.220Z,67.67
2019-02-24T05:14:39.377Z,67.88
2019-02-24T05:15:43.536Z,68.17
2019-02-24T05:16:47.694Z,68.63
2019-02-24T05:17:51.885Z,68.29
2019-02-24T05:18:56.004Z,68.80
2019-02-24T05:20:00.361Z,68.80
2019-02-24T05:21:04.214Z,69.22
2019-02-24T05:22:08.371Z,68.98
2019-02-24T05:23:12.466Z,69.27
2019-02-24T05:24:16.698Z,68.82
2019-02-24T05:25:20.862Z,68.78
2019-02-24T05:26:24.925Z,69.17
2019-02-24T05:27:29.033Z,68.79
2019-02-24T05:28:33.242Z,69.11
2019-02-24T05:29:45.153Z,69.33
2019-02-24T05:30:44.483Z,69.58
2019-02-24T05:31:48.530Z,69.74
2019-02-24T05:32:52.235Z,69.98
2019-02-24T05:33:56.343Z,69.62
2019-02-24T05:35:00.464Z,69.92
2019-02-24T05:36:04.655Z,69.80
2019-02-24T05:37:08.829Z,69.73
2019-02-24T05:38:12.983Z,69.66
2019-02-24T05:39:17.044Z,69.88
2019-02-24T05:40:21.217Z,69.81
2019-02-24T05:41:25.264Z,69.54
2019-02-24T05:42:29.456Z,69.84
2019-02-24T05:43:33.613Z,69.33
2019-02-24T05:44:37.765Z,69.34
2019-02-24T05:45:41.899Z,68.96
2019-02-24T05:46:46.028Z,68.78
2019-02-24T05:47:50.187Z,68.59
2019-02-24T05:48:54.332Z,68.71
2019-02-24T05:49:58.396Z,68.61
2019-02-24T05:51:02.459Z,68.83
2019-02-24T05:52:07.448Z,69.37
2019-02-24T05:53:11.134Z,69.83
2019-02-24T05:54:16.182Z,69.60
2019-02-24T05:55:19.908Z,70.11
2019-02-24T05:56:24.119Z,69.67
2019-02-24T05:57:28.152Z,69.79
2019-02-24T05:58:32.319Z,70.15
2019-02-24T05:59:36.490Z,70.06
2019-02-24T06:00:40.616Z,70.16
2019-02-24T06:01:44.746Z,70.76
2019-02-24T06:02:48.805Z,70.00
2019-02-24T06:03:53.071Z,69.55
2019-02-24T06:04:57.137Z,69.47
2019-02-24T06:06:01.326Z,70.17
2019-02-24T06:07:05.378Z,70.41
2019-02-24T06:08:09.575Z,69.75
2019-02-24T06:09:13.755Z,70.67
2019-02-24T06:10:17.790Z,70.48
2019-02-24T06:11:22.006Z,70.46
2019-02-24T06:12:26.092Z,70.39
2019-02-24T06:13:31.107Z,70.03
2019-02-24T06:14:34.952Z,69.70
2019-02-24T06:15:38.980Z,69.42
2019-02-24T06:16:43.087Z,69.31
2019-02-24T06:17:47.228Z,70.04
2019-02-24T06:18:51.369Z,69.84
2019-02-24T06:19:55.489Z,69.52
2019-02-24T06:21:00.484Z,69.83
2019-02-24T06:22:04.267Z,69.29
2019-02-24T06:23:08.356Z,69.05
2019-02-24T06:24:12.553Z,68.88
2019-02-24T06:25:16.691Z,68.77
2019-02-24T06:26:20.844Z,69.08
2019-02-24T06:27:24.940Z,68.75
2019-02-24T06:28:28.944Z,68.69
2019-02-24T06:29:33.102Z,68.68
2019-02-24T06:30:38.131Z,68.66
2019-02-24T06:31:42.731Z,68.83
2019-02-24T06:32:46.456Z,69.14
2019-02-24T06:33:50.680Z,69.11
2019-02-24T06:34:54.700Z,69.38
2019-02-24T06:35:58.787Z,69.15
2019-02-24T06:37:02.909Z,69.26
2019-02-24T06:38:07.076Z,68.86
2019-02-24T06:39:11.197Z,69.60
2019-02-24T06:40:15.292Z,69.04
2019-02-24T06:41:19.514Z,69.10
2019-02-24T06:42:23.572Z,68.84
2019-02-24T06:43:27.789Z,68.89
2019-02-24T06:44:31.874Z,68.97
2019-02-24T06:45:36.097Z,69.42
2019-02-24T06:46:40.181Z,69.77
2019-02-24T06:47:44.402Z,69.56
2019-02-24T06:48:48.583Z,69.77
2019-02-24T06:49:52.744Z,69.56
2019-02-24T06:50:56.903Z,69.97
2019-02-24T06:52:00.949Z,69.93
2019-02-24T06:53:05.057Z,70.18
2019-02-24T06:54:09.317Z,69.88
2019-02-24T06:55:13.356Z,69.80
2019-02-24T06:56:18.337Z,69.49
2019-02-24T06:57:22.042Z,69.73
2019-02-24T06:58:26.281Z,69.35
2019-02-24T06:59:30.304Z,69.35
2019-02-24T07:00:34.562Z,69.60
2019-02-24T07:01:38.685Z,69.76
2019-02-24T07:02:42.748Z,69.74
2019-02-24T07:03:46.861Z,70.00
2019-02-24T07:04:51.072Z,70.58
2019-02-24T07:05:55.099Z,70.54
2019-02-24T07:06:59.308Z,70.01
2019-02-24T07:08:04.294Z,70.22
2019-02-24T07:09:08.012Z,70.03
2019-02-24T07:10:12.127Z,70.16
2019-02-24T07:11:16.267Z,70.07
2019-02-24T07:12:20.437Z,70.03
2019-02-24T07:13:24.630Z,69.91
2019-02-24T07:14:28.807Z,69.68
2019-02-24T07:15:32.873Z,69.58
2019-02-24T07:16:37.060Z,69.63
2019-02-24T07:17:41.214Z,69.46
2019-02-24T07:18:45.381Z,69.32
2019-02-24T07:19:49.457Z,69.22
2019-02-24T07:20:53.664Z,69.23
2019-02-24T07:21:57.802Z,69.12
2019-02-24T07:23:01.968Z,69.25
2019-02-24T07:24:06.128Z,69.05
2019-02-24T07:25:10.281Z,69.32
2019-02-24T07:26:14.454Z,69.18
2019-02-24T07:27:18.580Z,69.40
2019-02-24T07:28:22.751Z,69.87
2019-02-24T07:29:26.937Z,69.54
2019-02-24T07:30:31.071Z,69.37
2019-02-24T07:31:35.141Z,69.29
2019-02-24T07:32:39.342Z,69.25
2019-02-24T07:33:43.519Z,69.19
2019-02-24T07:34:47.609Z,69.06
2019-02-24T07:35:51.757Z,69.44
2019-02-24T07:36:55.875Z,69.27
2019-02-24T07:38:00.019Z,69.63
2019-02-24T07:39:04.229Z,69.98
2019-02-24T07:40:08.406Z,69.54
2019-02-24T07:41:12.612Z,69.53
2019-02-24T07:42:16.763Z,69.67
2019-02-24T07:43:20.954Z,69.54
2019-02-24T07:44:25.138Z,69.56
2019-02-24T07:45:30.083Z,69.44
2019-02-24T07:46:33.936Z,69.46
2019-02-24T07:47:38.088Z,69.52
2019-02-24T07:48:42.213Z,69.47
2019-02-24T07:49:46.284Z,69.67
2019-02-24T07:50:50.497Z,69.56
2019-02-24T07:51:54.661Z,69.56
2019-02-24T07:52:58.847Z,69.79
2019-02-24T07:54:03.005Z,69.63
2019-02-24T07:55:07.183Z,70.17
2019-02-24T07:56:11.277Z,69.77
2019-02-24T07:57:15.729Z,69.83
2019-02-24T07:58:22.799Z,69.58
2019-02-24T07:59:26.017Z,69.70
2019-02-24T08:00:32.455Z,70.42
2019-02-24T08:01:34.260Z,70.54
2019-02-24T08:02:38.494Z,70.56
2019-02-24T08:03:42.544Z,70.24
2019-02-24T08:04:46.665Z,70.75
2019-02-24T08:05:50.887Z,71.22
2019-02-24T08:06:55.110Z,70.34
2019-02-24T08:07:59.189Z,69.97
2019-02-24T08:09:03.276Z,70.13
2019-02-24T08:10:07.388Z,70.39
2019-02-24T08:11:11.625Z,69.97
2019-02-24T08:12:15.829Z,69.97
2019-02-24T08:13:19.874Z,70.02
2019-02-24T08:14:24.082Z,70.83
2019-02-24T08:15:28.188Z,70.72
2019-02-24T08:16:32.339Z,70.18
2019-02-24T08:17:36.532Z,69.90
2019-02-24T08:18:49.032Z,69.76
2019-02-24T08:19:44.738Z,70.07
2019-02-24T08:20:48.976Z,70.10
2019-02-24T08:21:53.162Z,70.51
2019-02-24T08:22:57.307Z,70.69
2019-02-24T08:24:01.512Z,70.61
2019-02-24T08:25:05.605Z,71.03
2019-02-24T08:26:09.728Z,70.26
2019-02-24T08:27:13.978Z,70.00
2019-02-24T08:28:18.073Z,70.54
2019-02-24T08:29:22.346Z,70.11
2019-02-24T08:30:26.447Z,69.94
2019-02-24T08:31:30.662Z,69.83
2019-02-24T08:32:34.855Z,69.63
2019-02-24T08:33:39.011Z,69.95
2019-02-24T08:34:43.099Z,69.78
2019-02-24T08:35:47.217Z,69.80
2019-02-24T08:36:51.471Z,69.93
2019-02-24T08:37:55.541Z,70.05
2019-02-24T08:38:59.755Z,69.67
2019-02-24T08:40:03.874Z,69.61
2019-02-24T08:41:08.117Z,69.63
2019-02-24T08:42:12.328Z,69.44
2019-02-24T08:43:16.481Z,69.28
2019-02-24T08:44:22.171Z,69.21
2019-02-24T08:45:24.866Z,69.18
2019-02-24T08:46:28.892Z,69.17
2019-02-24T08:47:33.065Z,69.14
2019-02-24T08:48:37.303Z,69.02
2019-02-24T08:49:41.492Z,69.05
2019-02-24T08:50:45.543Z,69.03
2019-02-24T08:51:49.724Z,69.01
2019-02-24T08:52:53.948Z,68.95
2019-02-24T08:53:58.128Z,68.95
2019-02-24T08:55:02.205Z,68.88
2019-02-24T08:56:06.436Z,68.87
2019-02-24T08:57:10.578Z,68.93
2019-02-24T08:58:14.735Z,68.87
2019-02-24T08:59:18.946Z,69.09
2019-02-24T09:00:23.155Z,68.93
2019-02-24T09:01:27.155Z,69.04
2019-02-24T09:02:31.449Z,68.83
2019-02-24T09:03:35.509Z,68.89
2019-02-24T09:04:39.620Z,68.69
2019-02-24T09:05:43.814Z,68.62
2019-02-24T09:06:48.040Z,68.58
2019-02-24T09:07:52.245Z,68.55
2019-02-24T09:08:56.434Z,68.50
2019-02-24T09:10:00.649Z,68.45
2019-02-24T09:11:04.714Z,68.40
2019-02-24T09:12:08.873Z,68.44
2019-02-24T09:13:13.106Z,68.40
2019-02-24T09:14:17.245Z,68.33
2019-02-24T09:15:21.455Z,68.28
2019-02-24T09:16:25.659Z,68.33
2019-02-24T09:17:29.780Z,68.26
2019-02-24T09:18:33.977Z,68.16
2019-02-24T09:19:38.192Z,68.09
2019-02-24T09:20:42.326Z,67.99
2019-02-24T09:21:46.472Z,67.98
2019-02-24T09:22:50.587Z,67.85
2019-02-24T09:23:54.740Z,68.13
2019-02-24T09:24:58.887Z,68.01
2019-02-24T09:26:03.129Z,68.02
2019-02-24T09:27:07.329Z,68.01
2019-02-24T09:28:12.709Z,67.91
2019-02-24T09:29:16.517Z,67.81
2019-02-24T09:30:20.699Z,67.78
2019-02-24T09:31:24.823Z,67.82
2019-02-24T09:32:28.974Z,67.79
2019-02-24T09:33:33.125Z,67.61
2019-02-24T09:34:37.317Z,67.59
2019-02-24T09:35:41.531Z,67.67
2019-02-24T09:36:45.644Z,67.66
2019-02-24T09:37:49.932Z,67.76
2019-02-24T09:38:54.076Z,67.74
2019-02-24T09:39:58.230Z,67.73
2019-02-24T09:41:02.427Z,67.60
2019-02-24T09:42:06.617Z,67.56
2019-02-24T09:43:10.759Z,67.64
2019-02-24T09:44:14.899Z,67.56
2019-02-24T09:45:19.076Z,67.53
2019-02-24T09:46:23.348Z,67.64
2019-02-24T09:47:27.441Z,67.64
2019-02-24T09:48:31.617Z,67.51
2019-02-24T09:49:35.856Z,67.46
2019-02-24T09:50:40.074Z,67.31
2019-02-24T09:51:44.236Z,67.29
2019-02-24T09:52:48.476Z,67.27
2019-02-24T09:53:52.651Z,67.21
2019-02-24T09:54:56.833Z,67.27
2019-02-24T09:56:01.076Z,67.03
2019-02-24T09:57:05.283Z,67.07
2019-02-24T09:58:09.507Z,67.05
2019-02-24T09:59:13.601Z,66.96
2019-02-24T10:00:17.853Z,67.08
2019-02-24T10:01:21.937Z,67.01
2019-02-24T10:02:26.071Z,66.82
2019-02-24T10:03:30.328Z,66.75
2019-02-24T10:04:34.426Z,66.64
2019-02-24T10:05:39.105Z,66.48
2019-02-24T10:06:42.804Z,66.30
2019-02-24T10:07:47.041Z,66.36
2019-02-24T10:08:51.175Z,66.44
2019-02-24T10:09:55.337Z,65.91
2019-02-24T10:10:59.605Z,66.13
2019-02-24T10:12:03.805Z,66.34
2019-02-24T10:13:08.012Z,66.36
2019-02-24T10:14:12.261Z,66.44
2019-02-24T10:15:16.494Z,66.46
2019-02-24T10:16:20.660Z,66.21
2019-02-24T10:17:24.878Z,66.31
2019-02-24T10:18:29.107Z,66.26
2019-02-24T10:19:33.314Z,66.23
2019-02-24T10:20:37.448Z,66.16
2019-02-24T10:21:41.600Z,66.29
2019-02-24T10:22:45.871Z,66.18
2019-02-24T10:23:49.998Z,66.26
2019-02-24T10:24:54.274Z,66.35
2019-02-24T10:25:58.474Z,66.38
2019-02-24T10:27:02.679Z,66.21
2019-02-24T10:28:06.884Z,66.23
2019-02-24T10:29:11.151Z,66.31
2019-02-24T10:30:15.268Z,66.34
2019-02-24T10:31:20.187Z,66.25
2019-02-24T10:32:23.564Z,66.22
2019-02-24T10:33:27.839Z,66.05
2019-02-24T10:34:32.029Z,65.91
2019-02-24T10:35:36.167Z,65.97
2019-02-24T10:36:40.274Z,65.97
2019-02-24T10:37:44.598Z,65.73
2019-02-24T10:38:48.825Z,65.80
2019-02-24T10:39:53.045Z,66.00
2019-02-24T10:40:57.255Z,66.00
2019-02-24T10:42:01.490Z,65.91
2019-02-24T10:43:05.638Z,65.83
2019-02-24T10:44:09.877Z,65.42
2019-02-24T10:45:14.019Z,65.61
2019-02-24T10:46:18.296Z,65.75
2019-02-24T10:47:23.334Z,64.85
2019-02-24T10:48:27.254Z,65.07
2019-02-24T10:49:31.497Z,64.98
2019-02-24T10:50:35.632Z,64.55
2019-02-24T10:51:39.846Z,64.95
2019-02-24T10:52:44.123Z,65.03
2019-02-24T10:53:48.336Z,64.93
2019-02-24T10:54:52.605Z,65.12
2019-02-24T10:55:56.806Z,65.23
2019-02-24T10:57:01.043Z,65.44
2019-02-24T10:58:05.202Z,65.52
2019-02-24T10:59:09.687Z,65.24
2019-02-24T11:00:13.830Z,65.23
2019-02-24T11:01:17.960Z,64.80
2019-02-24T11:02:22.186Z,64.87
2019-02-24T11:03:29.438Z,65.14
2019-02-24T11:04:32.708Z,64.17
2019-02-24T11:05:36.833Z,64.01
2019-02-24T11:06:41.125Z,64.65
2019-02-24T11:07:45.355Z,64.80
2019-02-24T11:08:49.500Z,64.78
2019-02-24T11:09:53.826Z,64.30
2019-02-24T11:10:57.895Z,64.79
2019-02-24T11:12:02.206Z,64.77
2019-02-24T11:13:06.380Z,64.96
2019-02-24T11:14:10.624Z,64.79
2019-02-24T11:15:14.960Z,64.73
2019-02-24T11:16:19.115Z,64.58
2019-02-24T11:17:23.404Z,64.55
2019-02-24T11:18:27.465Z,64.71
2019-02-24T11:19:31.794Z,64.53
2019-02-24T11:20:35.961Z,64.29
2019-02-24T11:21:40.250Z,64.34
2019-02-24T11:22:44.509Z,64.27
2019-02-24T11:23:48.668Z,64.20
2019-02-24T11:24:52.979Z,61.73
2019-02-24T11:25:57.220Z,63.35
2019-02-24T11:27:01.374Z,62.54
2019-02-24T11:28:05.593Z,63.15
2019-02-24T11:29:09.903Z,63.30
2019-02-24T11:30:14.184Z,62.81
2019-02-24T11:31:21.453Z,63.03
2019-02-24T11:32:24.808Z,61.03
2019-02-24T11:33:29.146Z,62.54
2019-02-24T11:34:33.357Z,62.93
2019-02-24T11:35:37.673Z,62.66
2019-02-24T11:36:41.945Z,62.69
2019-02-24T11:37:46.217Z,62.77
2019-02-24T11:38:50.495Z,60.09
2019-02-24T11:39:54.801Z,59.12
2019-02-24T11:40:59.113Z,58.63
2019-02-24T11:42:03.419Z,57.79
2019-02-24T11:43:07.720Z,60.83
2019-02-24T11:44:12.007Z,61.21
2019-02-24T11:45:16.292Z,58.76
2019-02-24T11:46:20.576Z,59.03
2019-02-24T11:47:24.839Z,60.38
2019-02-24T11:48:29.090Z,58.29
2019-02-24T11:49:33.384Z,57.60
2019-02-24T11:50:37.682Z,58.89
2019-02-24T11:51:41.969Z,57.17
2019-02-24T11:52:46.271Z,56.49
2019-02-24T11:53:50.531Z,58.44
2019-02-24T11:54:54.846Z,56.69
2019-02-24T11:55:59.173Z,59.07
2019-02-24T11:57:03.415Z,59.18
2019-02-24T11:58:07.624Z,59.96
2019-02-24T11:59:11.961Z,59.61
2019-02-24T12:00:16.159Z,59.97
2019-02-24T12:01:20.511Z,55.98
2019-02-24T12:02:33.787Z,57.72
2019-02-24T12:03:29.093Z,55.57
2019-02-24T12:04:33.416Z,54.86
2019-02-24T12:05:37.708Z,55.21
2019-02-24T12:06:41.879Z,57.75
2019-02-24T12:07:46.299Z,58.75
2019-02-24T12:08:50.566Z,57.88
2019-02-24T12:09:54.762Z,58.41
2019-02-24T12:10:58.923Z,58.00
2019-02-24T12:12:03.292Z,54.64
2019-02-24T12:13:07.745Z,56.85
2019-02-24T12:14:12.011Z,56.02
2019-02-24T12:15:16.397Z,56.05
2019-02-24T12:16:20.687Z,51.12
2019-02-24T12:17:24.962Z,53.28
2019-02-24T12:18:29.222Z,56.34
2019-02-24T12:19:33.534Z,53.84
2019-02-24T12:20:37.936Z,56.98
2019-02-24T12:21:42.187Z,51.99
2019-02-24T12:22:46.515Z,51.38
2019-02-24T12:23:50.795Z,55.34
2019-02-24T12:24:55.205Z,51.93
2019-02-24T12:25:59.299Z,50.11
2019-02-24T12:27:03.726Z,50.37
2019-02-24T12:28:07.915Z,49.64
2019-02-24T12:29:12.300Z,50.35
2019-02-24T12:30:16.599Z,53.34
2019-02-24T12:31:20.881Z,53.62
2019-02-24T12:32:25.192Z,54.94
2019-02-24T12:33:29.502Z,55.69
2019-02-24T12:34:33.802Z,55.52
2019-02-24T12:35:38.248Z,51.48
2019-02-24T12:36:42.431Z,51.93
2019-02-24T12:37:46.773Z,50.44
2019-02-24T12:38:51.174Z,53.89
2019-02-24T12:39:55.587Z,51.03
2019-02-24T12:40:59.847Z,49.94
2019-02-24T12:42:04.069Z,50.90
2019-02-24T12:43:11.484Z,52.44
2019-02-24T12:44:14.997Z,53.67
2019-02-24T12:45:19.262Z,50.25
2019-02-24T12:46:23.563Z,52.49
2019-02-24T12:47:28.008Z,53.10
2019-02-24T12:48:32.288Z,53.31
2019-02-24T12:49:36.603Z,54.14
2019-02-24T12:50:40.943Z,51.11
2019-02-24T12:51:45.282Z,50.76
2019-02-24T12:52:49.621Z,47.31
2019-02-24T12:53:53.950Z,49.32
2019-02-24T12:54:58.243Z,48.42
2019-02-24T12:56:02.542Z,48.54
2019-02-24T12:57:06.999Z,49.98
2019-02-24T12:58:11.264Z,49.77
2019-02-24T12:59:15.601Z,52.11
2019-02-24T13:00:19.904Z,53.08
2019-02-24T13:01:24.206Z,51.76
2019-02-24T13:02:28.564Z,53.03
2019-02-24T13:03:32.899Z,53.40
2019-02-24T13:04:37.226Z,52.76
2019-02-24T13:05:41.547Z,53.18
2019-02-24T13:06:45.906Z,52.73
2019-02-24T13:07:50.250Z,52.95
2019-02-24T13:08:54.662Z,53.12
2019-02-24T13:09:58.941Z,52.09
2019-02-24T13:11:03.291Z,50.55
2019-02-24T13:12:07.632Z,52.48
2019-02-24T13:13:11.993Z,47.41
2019-02-24T13:14:16.302Z,45.46
2019-02-24T13:15:20.603Z,48.74
2019-02-24T13:16:24.911Z,50.42
2019-02-24T13:17:29.273Z,46.46
2019-02-24T13:18:33.608Z,48.34
2019-02-24T13:19:37.966Z,50.23
2019-02-24T13:20:42.281Z,45.47
2019-02-24T13:21:46.635Z,46.37
2019-02-24T13:22:51.009Z,49.96
2019-02-24T13:23:55.298Z,46.93
2019-02-24T13:24:59.651Z,48.50
2019-02-24T13:26:03.991Z,49.90
2019-02-24T13:27:08.285Z,49.63
2019-02-24T13:28:12.669Z,48.18
2019-02-24T13:29:16.976Z,50.13
2019-02-24T13:30:21.390Z,47.86
2019-02-24T13:31:25.705Z,46.35
2019-02-24T13:32:30.034Z,48.49
2019-02-24T13:33:34.380Z,49.17
2019-02-24T13:34:38.680Z,47.15
2019-02-24T13:35:43.010Z,49.42
2019-02-24T13:36:47.356Z,45.52
2019-02-24T13:37:51.695Z,44.74
2019-02-24T13:38:56.028Z,48.80
2019-02-24T13:40:00.348Z,47.45
2019-02-24T13:41:04.089Z,49.22
2019-02-24T13:42:08.434Z,49.16
2019-02-24T13:43:12.787Z,47.46
2019-02-24T13:44:17.149Z,49.20
2019-02-24T13:45:21.499Z,46.65
2019-02-24T13:46:25.848Z,49.23